Decoded Metar for LFAQ (ALBERT in FRANCE) (IATA:N/A) | Meteo·Mobile Aviation Weather
aviador You're here:

LFAQ Decoded Metar

ALBERT in FRANCE
Report Time2019-01-23 07:00:00
UTC Time2019-01-23 07:28:06
Flight Rules lifr LIFR
Wind300° at 05 kt
W.Decomp.*RWY 27: 4.3 kt HW 2.6 kt RCW
W.Rank300° ranks 7
Current wind is below 300° avg. (8.0)
Visibility3800 m
Phenomena:Snow
Mist
Clouds:Overcast 002 Hf
Ceiling200 ft
Temp00°C (ISA -14)
Dew Point00°C (100% RH)
AAT-3.8°C
QNH0993 hPa
Density Alt-607 ft
Elevation364 ft
Report Wrong Elevation
Raw Report
METAR LFAQ 230700Z AUTO 30005KT 3800 BR OVC002 00/00 Q0993 TEMPO
1100 SN BECMG 36010KT=

Extra information for LFAQ:More info

Metar Taf Metar & Taf Last 4 Metars F.Rules Stats Wind Profile Meteogram Temp Stats Airport Information Weather charts Add Link Nearby VenuesMetar ALERT Operation Metar Decoded Social comments